Time;durP1;ratioP1;P1;durP2;ratioP2;P2;SDS_P1;SDS_P2;PMS_P1;PMS_P2;Temp;Humidity;BMP_temperature;BMP_pressure;BME280_temperature;BME280_humidity;BME280_pressure;Samples;Min_cycle;Max_cycle;Signal;HPM_P1;HPM_P2
2023/02/08 00:01:46;;;;;;;22.57;11.80;;;;;;;-5.65;66.82;99987.97;7507559;23;20262;-57
2023/02/08 00:04:48;;;;;;;19.93;10.47;;;;;;;-5.67;66.81;99983.75;7505614;23;20282;-54
2023/02/08 00:07:50;;;;;;;17.87;9.90;;;;;;;-5.72;66.45;99979.66;7508805;23;20214;-58
2023/02/08 00:10:52;;;;;;;19.60;11.13;;;;;;;-5.73;66.54;99990.13;7508879;23;20281;-56
2023/02/08 00:13:54;;;;;;;18.33;10.40;;;;;;;-5.70;66.45;99995.16;7507944;23;20210;-56
2023/02/08 00:16:56;;;;;;;19.97;11.20;;;;;;;-5.72;65.98;100000.41;7508542;23;20226;-57
2023/02/08 00:19:58;;;;;;;20.07;10.83;;;;;;;-5.73;65.85;99997.91;7506221;23;20222;-57
2023/02/08 00:23:00;;;;;;;19.90;11.30;;;;;;;-5.76;65.89;100001.53;7508038;23;20214;-57
2023/02/08 00:26:02;;;;;;;24.37;11.77;;;;;;;-5.90;65.89;99977.22;7508565;23;20281;-57
2023/02/08 00:29:04;;;;;;;19.27;10.87;;;;;;;-5.78;66.10;100003.34;7509793;23;20301;-58
2023/02/08 00:32:09;;;;;;;19.60;10.10;;;;;;;-5.79;65.75;100001.66;7507995;23;20219;-56
2023/02/08 00:35:11;;;;;;;22.10;12.33;;;;;;;-5.86;65.88;100005.53;7508063;23;20220;-56
2023/02/08 00:38:13;;;;;;;17.13;10.60;;;;;;;-6.00;65.43;99987.28;7508970;23;20222;-56
2023/02/08 00:41:15;;;;;;;19.20;10.50;;;;;;;-5.99;65.93;100007.09;7507377;23;20297;-57
2023/02/08 00:44:17;;;;;;;19.17;10.60;;;;;;;-6.06;66.14;99998.81;7507725;23;20265;-54
2023/02/08 00:47:19;;;;;;;18.07;10.73;;;;;;;-6.13;66.07;99999.19;7507637;23;20221;-57
2023/02/08 00:50:22;;;;;;;20.00;10.40;;;;;;;-6.21;66.29;99998.75;7508582;23;20234;-58
2023/02/08 00:53:24;;;;;;;18.57;9.63;;;;;;;-6.20;66.37;100001.28;7506932;23;20701;-55
2023/02/08 00:56:26;;;;;;;17.73;9.97;;;;;;;-6.18;66.45;100002.03;7508518;23;20214;-58
2023/02/08 00:59:28;;;;;;;20.10;10.97;;;;;;;-6.21;66.28;99991.78;7508317;23;20485;-58
2023/02/08 01:02:31;;;;;;;21.83;10.77;;;;;;;-6.19;66.30;99999.53;7507994;23;20249;-56
2023/02/08 01:05:33;;;;;;;18.73;9.93;;;;;;;-6.22;66.20;99989.28;7507721;23;20214;-58
2023/02/08 01:08:35;;;;;;;17.70;10.00;;;;;;;-6.30;66.38;100000.06;7509412;23;20215;-58
2023/02/08 01:11:37;;;;;;;20.70;11.20;;;;;;;-6.35;66.61;99987.34;7507079;23;20214;-56
2023/02/08 01:14:40;;;;;;;20.23;11.10;;;;;;;-6.39;66.54;100000.53;7509525;23;20214;-58
2023/02/08 01:17:42;;;;;;;17.17;10.60;;;;;;;-6.43;67.08;100006.78;7505252;23;20218;-55
2023/02/08 01:20:44;;;;;;;21.90;10.17;;;;;;;-6.51;66.98;99997.63;7508225;23;20362;-58
2023/02/08 01:23:47;;;;;;;21.13;10.73;;;;;;;-6.85;66.98;99950.97;7507655;23;20752;-58
2023/02/08 01:26:50;;;;;;;23.13;11.73;;;;;;;-6.90;67.29;99963.31;7507518;23;20210;-58
2023/02/08 01:29:52;;;;;;;18.93;10.70;;;;;;;-6.73;67.50;99999.63;7507659;23;20213;-58
2023/02/08 01:32:54;;;;;;;18.80;10.43;;;;;;;-6.69;67.62;100008.94;7503898;23;20542;-57
2023/02/08 01:35:56;;;;;;;20.27;11.77;;;;;;;-6.72;67.76;100009.06;7507222;23;20292;-58
2023/02/08 01:38:58;;;;;;;19.27;11.17;;;;;;;-6.70;67.64;100008.97;7507455;23;20583;-58
2023/02/08 01:42:00;;;;;;;20.60;11.13;;;;;;;-6.74;67.98;100008.31;7507935;23;20218;-58
2023/02/08 01:45:14;;;;;;;19.97;10.80;;;;;;;-6.63;68.09;100002.59;7505137;23;20705;-57
2023/02/08 01:48:24;;;;;;;21.00;10.67;;;;;;;-6.58;67.76;100006.63;7506276;23;20211;-56
2023/02/08 01:51:32;;;;;;;21.30;11.47;;;;;;;-6.52;67.87;100013.25;7505632;23;20217;-57
2023/02/08 01:54:39;;;;;;;20.63;10.93;;;;;;;-6.46;67.15;100014.72;7514318;23;20265;-57
2023/02/08 01:57:43;;;;;;;19.30;11.90;;;;;;;-6.66;67.03;99987.19;7506133;23;20218;-55
2023/02/08 02:00:46;;;;;;;19.80;10.73;;;;;;;-6.54;67.54;100018.53;7505380;23;20210;-56
2023/02/08 02:03:49;;;;;;;20.70;11.67;;;;;;;-6.65;68.24;100020.81;7505624;23;20213;-56
2023/02/08 02:06:54;;;;;;;20.60;10.80;;;;;;;-6.59;68.47;100012.75;7506665;23;20265;-57
2023/02/08 02:10:14;;;;;;;23.83;12.07;;;;;;;-6.48;68.32;100009.59;7506952;23;20292;-57
2023/02/08 02:13:22;;;;;;;22.07;11.53;;;;;;;-6.57;68.17;99971.19;7505506;23;20215;-57
2023/02/08 02:16:24;;;;;;;17.80;10.83;;;;;;;-6.25;67.70;99996.31;7506850;23;20310;-54
2023/02/08 02:19:39;;;;;;;20.70;11.43;;;;;;;-6.18;67.77;100006.38;7506603;23;20214;-58
2023/02/08 02:23:02;;;;;;;24.20;11.47;;;;;;;-6.29;68.13;99988.78;7504528;23;20306;-57
2023/02/08 02:26:19;;;;;;;20.40;11.07;;;;;;;-6.16;68.37;100007.97;7506886;23;20362;-58
2023/02/08 02:29:30;;;;;;;19.03;11.00;;;;;;;-6.09;68.17;100011.09;7505927;23;20269;-59
2023/02/08 02:32:41;;;;;;;18.30;11.57;;;;;;;-6.35;67.97;99969.19;7502757;23;20302;-57
2023/02/08 02:35:55;;;;;;;18.60;10.80;;;;;;;-6.03;67.69;100010.78;7506718;23;20215;-57
2023/02/08 02:39:03;;;;;;;19.40;10.87;;;;;;;-5.98;67.50;100017.41;7510248;23;20290;-57
2023/02/08 02:45:39;;;;;;;22.47;11.40;;;;;;;-6.17;67.87;99992.47;7509354;23;20301;-57
2023/02/08 02:48:51;;;;;;;18.77;11.03;;;;;;;-5.94;67.69;100015.50;7506717;23;20289;-58
2023/02/08 02:52:17;;;;;;;20.53;10.87;;;;;;;-6.10;67.87;99991.25;7508396;23;20211;-57
2023/02/08 02:55:23;;;;;;;22.37;11.73;;;;;;;-5.96;67.78;100006.94;7504510;23;20734;-53
2023/02/08 02:58:27;;;;;;;19.33;10.70;;;;;;;-5.92;67.20;100020.59;7507055;23;20298;-57
2023/02/08 03:01:30;;;;;;;18.57;11.30;;;;;;;-5.92;66.88;100028.38;7506820;23;20214;-56
2023/02/08 03:04:32;;;;;;;25.83;12.27;;;;;;;-5.94;67.25;100025.88;7506047;23;20730;-57
2023/02/08 03:07:43;;;;;;;18.63;11.23;;;;;;;-5.89;67.08;100015.22;7505921;23;20690;-56
2023/02/08 03:10:52;;;;;;;18.37;10.83;;;;;;;-5.85;67.14;100017.56;7506870;23;20266;-57
2023/02/08 03:14:19;;;;;;;19.87;10.83;;;;;;;-5.84;66.63;100021.84;7506719;23;20218;-57
2023/02/08 03:17:32;;;;;;;21.70;11.17;;;;;;;-5.85;66.52;100037.50;7504553;23;20294;-57
2023/02/08 03:20:40;;;;;;;21.37;12.30;;;;;;;-5.86;66.36;100038.41;7507405;23;20222;-58
2023/02/08 03:24:44;;;;;;;23.43;12.03;;;;;;;-5.98;67.12;100037.31;7506047;23;20218;-56
2023/02/08 03:28:04;;;;;;;26.83;11.97;;;;;;;-6.13;67.13;100036.34;7397303;24;20300;-58
2023/02/08 03:31:15;;;;;;;23.33;11.73;;;;;;;-6.22;67.31;100030.78;7396173;23;20311;-58
2023/02/08 03:34:50;;;;;;;23.80;12.33;;;;;;;-6.14;67.15;100021.72;7394871;24;20603;-57
2023/02/08 03:38:17;;;;;;;20.67;11.67;;;;;;;-6.17;66.96;100021.84;7397281;24;20737;-56
2023/02/08 03:41:27;;;;;;;21.83;12.03;;;;;;;-6.20;67.24;100018.59;7399067;24;20751;-57
2023/02/08 03:44:39;;;;;;;21.63;12.27;;;;;;;-6.21;67.29;100014.31;7375947;24;20315;-58
2023/02/08 03:47:46;;;;;;;20.17;11.17;;;;;;;-6.17;66.93;100021.00;7398298;23;20276;-58
2023/02/08 03:50:52;;;;;;;23.40;12.20;;;;;;;-6.20;66.61;100014.25;7399529;24;20597;-56
2023/02/08 03:53:57;;;;;;;20.30;10.80;;;;;;;-6.36;67.03;99990.81;7397758;24;20217;-59
2023/02/08 03:57:12;;;;;;;25.30;12.83;;;;;;;-6.30;66.67;100010.44;7405923;23;20227;-58
2023/02/08 04:00:18;;;;;;;20.40;11.13;;;;;;;-6.30;66.43;100013.03;7508779;23;20660;-58
2023/02/08 04:03:24;;;;;;;22.67;12.07;;;;;;;-6.36;66.32;100008.97;7508465;23;20179;-57
2023/02/08 04:06:27;;;;;;;24.53;12.70;;;;;;;-6.40;66.12;100024.75;7509718;23;20519;-56
2023/02/08 04:09:29;;;;;;;24.83;12.37;;;;;;;-6.46;66.23;100014.72;7508843;23;20285;-56
2023/02/08 04:12:31;;;;;;;21.67;12.37;;;;;;;-6.47;66.06;100029.44;7510501;23;20210;-57
2023/02/08 04:15:33;;;;;;;22.87;12.53;;;;;;;-6.58;66.23;100023.94;7507329;23;20589;-58
2023/02/08 04:18:35;;;;;;;25.30;12.93;;;;;;;-6.68;66.37;100030.50;7508565;23;20584;-57
2023/02/08 04:21:38;;;;;;;23.10;11.53;;;;;;;-6.74;65.87;100025.63;7508694;23;20397;-57
2023/02/08 04:24:40;;;;;;;20.93;11.83;;;;;;;-6.78;66.31;100025.75;7507957;23;20270;-58
2023/02/08 04:27:42;;;;;;;23.33;12.37;;;;;;;-7.03;66.22;99999.34;7508390;23;20265;-57
2023/02/08 04:30:44;;;;;;;23.10;11.77;;;;;;;-6.87;66.72;100036.56;7506223;23;20211;-56
2023/02/08 04:33:46;;;;;;;26.97;12.03;;;;;;;-6.94;67.23;100019.66;7507063;23;20210;-58
2023/02/08 04:36:48;;;;;;;23.70;13.27;;;;;;;-6.93;67.39;100015.31;7507240;23;20293;-57
2023/02/08 04:39:50;;;;;;;22.87;11.83;;;;;;;-6.94;67.00;100013.63;7508224;23;20217;-55
2023/02/08 04:42:52;;;;;;;22.63;11.53;;;;;;;-6.92;66.36;100009.19;7508808;23;20293;-54
2023/02/08 04:45:54;;;;;;;22.83;12.53;;;;;;;-7.06;66.45;99997.75;7507630;23;20546;-55
2023/02/08 04:48:56;;;;;;;19.93;11.97;;;;;;;-7.02;66.87;100014.81;7508092;23;20304;-58
2023/02/08 04:51:59;;;;;;;21.83;11.37;;;;;;;-7.03;66.79;100007.97;7507776;23;20221;-57
2023/02/08 04:55:02;;;;;;;27.30;12.87;;;;;;;-7.27;66.67;99970.28;7508386;23;20301;-57
2023/02/08 04:58:04;;;;;;;24.33;12.67;;;;;;;-7.03;66.39;100025.25;7506303;23;20228;-58
2023/02/08 05:01:09;;;;;;;28.47;13.07;;;;;;;-7.16;66.55;100018.97;7507663;23;20599;-58
2023/02/08 05:04:11;;;;;;;24.03;12.33;;;;;;;-7.42;66.42;99978.78;7507887;23;20215;-58
2023/02/08 05:07:13;;;;;;;21.97;11.77;;;;;;;-7.17;66.52;100020.72;7510057;23;20214;-58
2023/02/08 05:10:16;;;;;;;20.37;11.53;;;;;;;-7.25;66.57;100022.81;7510254;23;20671;-55
2023/02/08 05:13:18;;;;;;;21.20;11.70;;;;;;;-7.23;66.43;100009.81;7513421;23;20734;-57
2023/02/08 05:16:20;;;;;;;23.40;12.47;;;;;;;-7.18;66.56;100021.66;7513732;23;20214;-58
2023/02/08 05:19:22;;;;;;;25.77;12.23;;;;;;;-7.31;66.66;100023.13;7515873;23;20214;-57
2023/02/08 05:22:24;;;;;;;23.17;11.67;;;;;;;-7.33;66.95;100035.31;7509600;23;20541;-58
2023/02/08 05:25:26;;;;;;;22.00;10.73;;;;;;;-7.28;66.62;100031.59;7506696;23;20297;-57
2023/02/08 05:28:28;;;;;;;20.63;11.30;;;;;;;-7.23;66.17;100039.16;7507086;23;20297;-57
2023/02/08 05:31:30;;;;;;;24.37;11.60;;;;;;;-7.24;65.90;100034.88;7510251;23;20261;-57
2023/02/08 05:34:32;;;;;;;18.83;11.27;;;;;;;-7.21;65.99;100036.47;7506346;23;20396;-56
2023/02/08 05:37:34;;;;;;;20.73;11.10;;;;;;;-7.21;65.56;100026.94;7507565;23;20249;-58
2023/02/08 05:40:36;;;;;;;24.17;11.90;;;;;;;-7.32;65.90;100048.16;7507396;23;20705;-58
2023/02/08 05:43:39;;;;;;;19.50;10.37;;;;;;;-7.54;65.84;100006.03;7507158;23;20289;-58
2023/02/08 05:46:41;;;;;;;22.63;12.30;;;;;;;-7.47;66.57;100055.81;7506451;23;20218;-57
2023/02/08 05:49:43;;;;;;;15.37;9.70;;;;;;;-7.42;65.95;100049.50;7507303;23;20588;-58
2023/02/08 05:52:45;;;;;;;17.27;9.50;;;;;;;-7.53;65.93;100057.75;7507217;23;20297;-57
2023/02/08 05:55:47;;;;;;;19.77;10.17;;;;;;;-7.54;66.15;100066.44;7507342;23;20771;-57
2023/02/08 05:58:49;;;;;;;19.17;11.47;;;;;;;-7.48;65.49;100074.84;7506915;23;20738;-58
2023/02/08 06:01:51;;;;;;;18.53;9.40;;;;;;;-7.50;65.90;100067.13;7507769;23;20742;-57
2023/02/08 06:04:53;;;;;;;16.93;10.13;;;;;;;-7.65;65.98;100060.88;7507343;23;20215;-56
2023/02/08 06:07:55;;;;;;;18.50;9.90;;;;;;;-7.48;65.69;100078.28;7506446;23;20218;-58
2023/02/08 06:10:57;;;;;;;20.93;11.13;;;;;;;-7.58;65.98;100085.59;7508601;23;20828;-56
2023/02/08 06:14:00;;;;;;;17.63;10.63;;;;;;;-7.77;66.57;100089.91;7509971;23;20284;-57
2023/02/08 06:17:02;;;;;;;21.37;10.53;;;;;;;-7.62;65.78;100098.75;7505717;23;20238;-55
2023/02/08 06:20:04;;;;;;;22.27;11.27;;;;;;;-7.68;66.05;100091.25;7508005;23;20528;-57
2023/02/08 06:23:06;;;;;;;20.03;9.87;;;;;;;-7.57;66.26;100099.38;7507086;23;20288;-58
2023/02/08 06:26:08;;;;;;;21.17;10.33;;;;;;;-7.52;65.62;100094.84;7507404;23;20529;-58
2023/02/08 06:29:10;;;;;;;19.17;9.73;;;;;;;-7.51;66.29;100101.69;7506753;23;20293;-53
2023/02/08 06:32:12;;;;;;;21.00;10.47;;;;;;;-7.59;66.29;100104.59;7506263;23;20289;-56
2023/02/08 06:35:15;;;;;;;18.57;10.47;;;;;;;-7.46;66.04;100109.25;7504021;23;20222;-58
2023/02/08 06:38:17;;;;;;;18.83;9.70;;;;;;;-7.44;66.10;100123.78;7507669;23;20221;-58
2023/02/08 06:41:19;;;;;;;19.33;10.67;;;;;;;-7.47;66.00;100117.94;7506027;23;20676;-58
2023/02/08 06:44:21;;;;;;;18.27;9.83;;;;;;;-7.54;66.45;100118.22;7506507;23;20233;-58
2023/02/08 06:47:25;;;;;;;20.77;10.30;;;;;;;-7.41;65.99;100115.91;7507227;23;20657;-58
2023/02/08 06:50:27;;;;;;;19.50;10.20;;;;;;;-7.47;65.92;100090.28;7507216;23;20294;-58
2023/02/08 06:53:29;;;;;;;24.00;11.40;;;;;;;-7.26;65.80;100114.38;7507306;23;20289;-56
2023/02/08 06:56:31;;;;;;;20.97;9.90;;;;;;;-7.25;66.01;100107.44;7507789;23;20675;-57
2023/02/08 06:59:33;;;;;;;20.43;10.03;;;;;;;-7.15;65.96;100116.47;7508085;23;20345;-59
2023/02/08 07:02:35;;;;;;;17.13;10.03;;;;;;;-7.04;65.84;100112.50;7507241;23;20526;-58
2023/02/08 07:05:38;;;;;;;22.23;10.50;;;;;;;-7.16;65.85;100050.06;7506500;23;20242;-58
2023/02/08 07:08:41;;;;;;;21.23;10.23;;;;;;;-7.03;65.83;100059.78;7505625;23;20210;-57
2023/02/08 07:11:43;;;;;;;18.03;10.97;;;;;;;-6.92;66.27;100074.81;7506514;23;20294;-58
2023/02/08 07:14:45;;;;;;;19.43;10.80;;;;;;;-6.76;66.41;100061.94;7509516;23;20742;-58
2023/02/08 07:17:47;;;;;;;22.40;10.97;;;;;;;-6.66;66.01;100072.72;7508814;23;20210;-59
2023/02/08 07:20:49;;;;;;;19.00;10.70;;;;;;;-6.64;66.35;100071.75;7509823;23;20249;-59
2023/02/08 07:23:51;;;;;;;19.90;10.60;;;;;;;-6.54;66.53;100074.72;7511102;23;20238;-58
2023/02/08 07:26:53;;;;;;;18.00;10.43;;;;;;;-6.42;66.21;100087.09;7509965;23;20674;-55
2023/02/08 07:29:55;;;;;;;20.07;10.63;;;;;;;-6.35;66.08;100095.41;7509900;23;20301;-57
2023/02/08 07:32:57;;;;;;;17.43;10.33;;;;;;;-6.28;66.19;100107.16;7510953;23;20357;-57
2023/02/08 07:36:00;;;;;;;17.23;9.83;;;;;;;-6.22;65.94;100108.59;7511289;23;20262;-58
2023/02/08 07:39:02;;;;;;;19.27;10.80;;;;;;;-6.00;65.97;100122.19;7509035;23;20285;-57
2023/02/08 07:42:05;;;;;;;20.07;10.60;;;;;;;-5.67;65.57;100124.78;7510517;23;20623;-57
2023/02/08 07:45:14;;;;;;;19.13;10.20;;;;;;;-5.28;64.65;100110.63;7508859;23;20282;-56
2023/02/08 07:48:16;;;;;;;19.10;10.03;;;;;;;-5.13;63.91;100101.19;7511056;23;20272;-59
2023/02/08 07:51:18;;;;;;;19.47;10.63;;;;;;;-5.41;64.58;100068.06;7510762;23;20680;-56
2023/02/08 07:54:21;;;;;;;20.00;10.70;;;;;;;-5.25;65.01;100100.94;7510558;23;20246;-57
2023/02/08 07:57:23;;;;;;;18.83;10.57;;;;;;;-5.18;65.11;100097.06;7510680;23;20555;-58
2023/02/08 08:00:25;;;;;;;18.27;10.47;;;;;;;-5.21;65.52;100099.84;7510673;23;20266;-56
2023/02/08 08:03:28;;;;;;;21.17;10.60;;;;;;;-5.15;65.73;100098.69;7509586;23;20210;-58
2023/02/08 08:06:30;;;;;;;19.47;11.13;;;;;;;-5.08;65.77;100114.78;7511238;23;20221;-56
2023/02/08 08:09:32;;;;;;;17.20;10.70;;;;;;;-4.93;65.66;100107.00;7510025;23;20252;-58
2023/02/08 08:12:34;;;;;;;21.20;11.73;;;;;;;-4.94;66.35;100113.09;7510467;23;20263;-59
2023/02/08 08:15:36;;;;;;;18.60;10.50;;;;;;;-4.90;66.61;100125.94;7510607;23;20217;-58
2023/02/08 08:18:38;;;;;;;21.13;10.40;;;;;;;-4.72;66.25;100107.56;7509838;23;20301;-56
2023/02/08 08:21:40;;;;;;;17.80;10.20;;;;;;;-4.66;66.54;100109.00;7510607;23;20573;-55
2023/02/08 08:24:42;;;;;;;20.73;11.40;;;;;;;-4.50;66.82;100116.78;7509746;23;20750;-57
2023/02/08 08:27:44;;;;;;;22.20;10.63;;;;;;;-4.33;66.67;100126.25;7507706;23;20667;-58
2023/02/08 08:30:46;;;;;;;24.93;12.77;;;;;;;-4.19;66.67;100113.25;7506857;23;20210;-55
2023/02/08 08:33:49;;;;;;;23.03;13.17;;;;;;;-4.07;66.69;100120.38;7508863;23;20682;-57
2023/02/08 08:36:51;;;;;;;22.50;11.93;;;;;;;-3.84;66.67;100124.25;7508508;23;20293;-58
2023/02/08 08:39:53;;;;;;;21.37;12.10;;;;;;;-3.52;66.33;100127.53;7508263;23;20342;-56
2023/02/08 08:42:56;;;;;;;20.53;11.73;;;;;;;-3.14;66.01;100120.00;7508188;23;20668;-56
2023/02/08 08:45:58;;;;;;;22.27;11.43;;;;;;;-2.84;65.08;100110.34;7509741;23;20223;-56
2023/02/08 08:49:00;;;;;;;17.57;11.37;;;;;;;-2.53;64.78;100107.47;7507948;23;20214;-55
2023/02/08 08:52:04;;;;;;;20.27;11.87;;;;;;;-2.28;63.93;100092.81;7506314;23;20214;-57
2023/02/08 08:55:08;;;;;;;22.63;12.23;;;;;;;-2.30;64.20;100089.47;7508604;23;20238;-58
2023/02/08 08:58:10;;;;;;;19.83;11.03;;;;;;;-2.06;63.70;100095.69;7507796;23;20242;-57
2023/02/08 09:01:12;;;;;;;22.13;13.30;;;;;;;-1.86;63.30;100096.97;7507605;23;20305;-58
2023/02/08 09:04:15;;;;;;;21.30;12.27;;;;;;;-1.68;62.91;100106.16;7508066;23;20549;-58
2023/02/08 09:07:17;;;;;;;22.13;13.03;;;;;;;-1.47;62.82;100111.72;7509932;23;20214;-58
2023/02/08 09:10:19;;;;;;;22.00;13.07;;;;;;;-1.55;62.14;100087.88;7507503;23;20210;-57
2023/02/08 09:13:21;;;;;;;23.37;12.73;;;;;;;-1.15;60.90;100121.72;7507872;23;20691;-59
2023/02/08 09:16:24;;;;;;;20.50;12.63;;;;;;;-1.08;60.14;100130.84;7505838;23;20214;-53
2023/02/08 09:19:26;;;;;;;23.13;13.77;;;;;;;-1.08;59.02;100151.75;7506849;23;20217;-56
2023/02/08 09:22:28;;;;;;;22.30;12.77;;;;;;;-1.28;59.08;100113.03;7507053;23;20297;-54
2023/02/08 09:25:32;;;;;;;24.43;14.87;;;;;;;-1.03;58.30;100147.03;7507766;23;20589;-59
2023/02/08 09:28:34;;;;;;;24.23;13.73;;;;;;;-1.08;57.97;100149.97;7507780;23;20671;-57
2023/02/08 09:31:36;;;;;;;26.07;14.60;;;;;;;-1.05;58.41;100143.69;7508231;23;20632;-57
2023/02/08 09:34:39;;;;;;;26.67;13.33;;;;;;;-1.09;57.73;100143.03;7510047;23;20215;-58
2023/02/08 09:37:41;;;;;;;20.77;12.77;;;;;;;-1.14;58.03;100139.06;7514091;23;20214;-57
2023/02/08 09:41:02;;;;;;;26.97;15.40;;;;;;;-0.95;57.87;100143.88;7511540;23;20218;-57
2023/02/08 09:44:36;;;;;;;24.87;14.40;;;;;;;-0.87;57.60;100146.78;7508159;23;20210;-56
2023/02/08 09:48:02;;;;;;;25.37;14.83;;;;;;;-0.79;57.55;100155.78;7508065;23;20262;-57
2023/02/08 09:51:29;;;;;;;30.97;16.77;;;;;;;-0.72;56.41;100155.34;7506487;23;20245;-57
2023/02/08 09:54:36;;;;;;;22.90;14.60;;;;;;;-0.91;56.99;100138.31;7508570;23;20213;-56
2023/02/08 09:57:38;;;;;;;32.50;17.93;;;;;;;-0.64;56.85;100151.25;7506619;23;20228;-57
2023/02/08 10:00:44;;;;;;;30.03;18.30;;;;;;;-0.66;56.42;100152.28;7508348;23;20277;-57
2023/02/08 10:03:50;;;;;;;30.63;17.53;;;;;;;-0.78;56.58;100161.84;7507531;23;20222;-57
2023/02/08 10:06:53;;;;;;;25.73;15.23;;;;;;;-0.82;57.17;100150.75;7506865;23;20290;-57
2023/02/08 10:09:58;;;;;;;27.77;17.10;;;;;;;-0.69;57.15;100168.19;7507102;23;20549;-53
2023/02/08 10:13:32;;;;;;;27.07;15.67;;;;;;;-0.65;57.29;100165.25;7512611;23;20625;-56
2023/02/08 10:16:44;;;;;;;27.27;15.83;;;;;;;-0.49;57.22;100165.03;7503329;23;20702;-58
2023/02/08 10:20:17;;;;;;;27.43;15.83;;;;;;;-0.40;57.06;100159.09;7507245;23;20702;-57
2023/02/08 10:23:37;;;;;;;30.90;16.93;;;;;;;-0.35;56.77;100156.13;7506819;23;20683;-57
2023/02/08 10:26:52;;;;;;;27.90;16.13;;;;;;;-0.48;55.74;100158.84;7506914;23;20735;-55
2023/02/08 10:30:13;;;;;;;27.30;16.73;;;;;;;-0.46;56.20;100167.41;7508366;23;20218;-56
2023/02/08 10:33:23;;;;;;;30.37;17.67;;;;;;;-0.45;56.77;100161.22;7504349;23;20209;-56
2023/02/08 10:36:32;;;;;;;33.07;17.80;;;;;;;-0.69;57.13;100155.09;7508720;23;20277;-55
2023/02/08 10:39:35;;;;;;;37.00;19.07;;;;;;;-0.74;57.08;100154.59;7508567;23;20217;-57
2023/02/08 10:42:38;;;;;;;33.30;19.00;;;;;;;-0.87;57.40;100158.09;7507213;23;20554;-57
2023/02/08 10:46:03;;;;;;;31.47;17.97;;;;;;;-0.69;57.60;100157.72;7506112;23;20301;-57
2023/02/08 10:49:24;;;;;;;33.13;18.23;;;;;;;-0.51;57.63;100151.19;7506192;23;20242;-56
2023/02/08 10:52:26;;;;;;;31.30;18.53;;;;;;;-0.44;57.52;100149.81;7506797;23;20218;-58
2023/02/08 10:55:31;;;;;;;30.67;18.50;;;;;;;-0.34;57.04;100142.97;7506939;23;20278;-55
2023/02/08 10:58:36;;;;;;;30.47;18.70;;;;;;;-0.32;57.02;100148.91;7506653;23;20215;-57
2023/02/08 11:01:39;;;;;;;30.13;18.03;;;;;;;-0.20;56.86;100147.16;7506104;23;20241;-57
2023/02/08 11:05:11;;;;;;;29.97;18.00;;;;;;;-0.39;56.68;100113.66;7507436;23;20246;-58
2023/02/08 11:08:18;;;;;;;25.13;15.73;;;;;;;-0.07;56.36;100149.72;7504812;23;20210;-57
2023/02/08 11:11:20;;;;;;;30.23;17.43;;;;;;;0.14;56.09;100148.13;7506120;23;20218;-56
2023/02/08 11:14:32;;;;;;;30.43;17.70;;;;;;;0.36;55.22;100149.16;7507209;23;20214;-57
2023/02/08 11:17:53;;;;;;;24.00;15.23;;;;;;;0.37;54.36;100145.59;7506327;23;20223;-55
2023/02/08 11:20:59;;;;;;;26.63;15.43;;;;;;;0.32;54.87;100147.72;7506547;23;20235;-54
2023/02/08 11:24:21;;;;;;;29.20;17.60;;;;;;;0.49;54.78;100145.50;7506295;23;20199;-53
2023/02/08 11:27:33;;;;;;;32.20;17.97;;;;;;;0.65;54.37;100150.41;7506504;23;20262;-53
2023/02/08 11:30:36;;;;;;;30.17;18.33;;;;;;;0.36;54.08;100146.53;7506378;23;20216;-56
2023/02/08 11:33:57;;;;;;;27.10;16.73;;;;;;;0.40;54.06;100142.75;7506598;23;20683;-57
2023/02/08 11:37:12;;;;;;;28.30;17.00;;;;;;;0.45;54.00;100144.06;7507699;23;20579;-54
2023/02/08 11:40:22;;;;;;;28.77;17.00;;;;;;;0.78;53.52;100137.16;7506646;23;20219;-57
2023/02/08 11:43:31;;;;;;;35.50;17.97;;;;;;;0.77;53.02;100133.72;7506085;23;20215;-56
2023/02/08 11:46:36;;;;;;;29.90;18.27;;;;;;;0.75;53.24;100088.41;7506828;23;20702;-55
2023/02/08 11:49:40;;;;;;;28.80;16.60;;;;;;;1.01;52.48;100119.63;7504867;23;20264;-58
2023/02/08 11:52:44;;;;;;;25.33;15.33;;;;;;;1.14;52.17;100119.53;7506083;23;20222;-57
2023/02/08 11:56:22;;;;;;;23.40;14.80;;;;;;;1.51;50.13;100101.63;7506116;23;20274;-58
2023/02/08 11:59:26;;;;;;;20.43;14.23;;;;;;;1.88;48.84;100104.72;7506262;23;20223;-57
2023/02/08 12:02:38;;;;;;;23.53;14.50;;;;;;;1.95;47.78;100103.25;7507709;23;20287;-55
2023/02/08 12:06:20;;;;;;;20.83;13.70;;;;;;;1.83;45.68;100093.78;7508937;23;20220;-58
2023/02/08 12:09:32;;;;;;;20.63;12.87;;;;;;;1.68;46.22;100051.19;7503937;23;20214;-57
2023/02/08 12:12:47;;;;;;;22.33;14.50;;;;;;;2.01;45.27;100096.66;7508387;23;20758;-59
2023/02/08 12:16:05;;;;;;;24.67;14.30;;;;;;;1.92;45.47;100089.53;7507611;23;20534;-58
2023/02/08 12:19:21;;;;;;;21.80;13.20;;;;;;;1.59;45.38;100090.53;7508101;23;20288;-58
2023/02/08 12:22:25;;;;;;;20.63;12.73;;;;;;;1.35;45.33;100085.47;7508285;23;20218;-54
2023/02/08 12:26:05;;;;;;;20.80;13.03;;;;;;;1.20;45.83;100087.53;7507509;23;20212;-58
2023/02/08 12:29:41;;;;;;;20.07;12.10;;;;;;;1.15;45.22;100092.31;7474211;23;20215;-55
2023/02/08 12:33:07;;;;;;;24.03;14.20;;;;;;;1.21;46.10;100076.88;7508449;23;20216;-60
2023/02/08 12:36:42;;;;;;;19.63;12.53;;;;;;;1.16;46.40;100089.53;7507764;23;20213;-56
2023/02/08 12:43:57;;;;;;;20.30;13.00;;;;;;;1.09;47.15;100082.31;7507443;23;20226;-59
2023/02/08 12:47:14;;;;;;;18.37;12.50;;;;;;;1.09;47.13;100077.88;7507981;23;20220;-57
2023/02/08 12:50:26;;;;;;;18.10;11.60;;;;;;;1.26;46.58;100071.28;7509076;23;20736;-57
2023/02/08 12:53:53;;;;;;;18.70;12.00;;;;;;;1.29;46.63;100071.03;7516544;23;20469;-58
2023/02/08 12:56:58;;;;;;;21.27;11.90;;;;;;;1.26;47.08;100066.03;7506632;23;20216;-57
2023/02/08 13:00:14;;;;;;;20.40;13.00;;;;;;;1.00;48.14;100074.19;7505664;23;20289;-53
2023/02/08 13:03:30;;;;;;;21.13;12.33;;;;;;;1.00;47.86;100071.56;7507196;23;20187;-59
2023/02/08 13:06:42;;;;;;;21.00;13.07;;;;;;;1.27;48.11;100065.88;7506807;23;20675;-58
2023/02/08 13:10:04;;;;;;;23.47;12.10;;;;;;;1.27;47.62;100063.25;7507311;23;20300;-58
2023/02/08 13:13:12;;;;;;;17.20;9.73;;;;;;;1.20;46.53;100056.84;7508529;23;20215;-58
2023/02/08 13:16:23;;;;;;;16.13;10.67;;;;;;;1.28;46.00;100050.97;7506806;23;20219;-58
2023/02/08 13:19:37;;;;;;;16.43;10.60;;;;;;;1.25;45.98;100051.22;7505837;23;20347;-59
2023/02/08 13:22:46;;;;;;;17.53;10.70;;;;;;;1.13;45.91;100047.78;7507895;23;20325;-59
2023/02/08 13:25:52;;;;;;;15.60;9.10;;;;;;;1.01;46.73;100054.84;7506473;23;20539;-58
2023/02/08 13:28:56;;;;;;;14.80;8.43;;;;;;;1.08;46.81;100062.22;7504971;23;20210;-58
2023/02/08 13:32:04;;;;;;;14.03;8.90;;;;;;;1.07;46.67;100040.41;7507521;23;20219;-57
2023/02/08 13:35:14;;;;;;;14.90;9.57;;;;;;;1.02;46.97;100037.31;7508150;23;20267;-56
2023/02/08 13:38:37;;;;;;;15.27;9.57;;;;;;;0.98;46.78;100051.63;7507706;23;20293;-59
2023/02/08 13:41:50;;;;;;;16.17;10.03;;;;;;;1.00;46.89;100034.81;7508767;23;20272;-53
2023/02/08 13:44:55;;;;;;;13.90;9.37;;;;;;;0.96;47.52;100035.19;7507204;23;20210;-58
2023/02/08 13:48:01;;;;;;;18.53;10.67;;;;;;;0.82;47.84;100032.81;7507730;23;20220;-58
2023/02/08 13:51:03;;;;;;;16.63;10.60;;;;;;;0.64;48.25;100019.34;7505892;23;20259;-60
2023/02/08 13:54:11;;;;;;;15.63;10.17;;;;;;;0.77;48.83;100033.19;7506591;23;20982;-59
2023/02/08 13:57:51;;;;;;;14.10;9.23;;;;;;;0.80;48.74;100040.00;7507044;23;20186;-59
2023/02/08 14:00:53;;;;;;;15.10;10.30;;;;;;;0.61;49.27;100040.59;7507439;23;20246;-59
2023/02/08 14:04:08;;;;;;;19.27;11.43;;;;;;;0.52;49.65;100035.09;7504448;23;20210;-56
2023/02/08 14:07:10;;;;;;;19.70;11.17;;;;;;;0.49;49.93;100034.50;7508763;23;20211;-57
2023/02/08 14:10:19;;;;;;;18.67;11.27;;;;;;;0.41;50.04;100036.91;7507000;23;20301;-58
2023/02/08 14:13:30;;;;;;;15.80;10.50;;;;;;;0.40;50.50;100035.25;7506962;23;20222;-59
2023/02/08 14:16:40;;;;;;;15.53;9.80;;;;;;;0.45;50.61;100026.06;7505417;23;20281;-58
2023/02/08 14:19:46;;;;;;;17.53;10.10;;;;;;;0.51;50.73;100027.38;7507146;23;20242;-59
2023/02/08 14:22:51;;;;;;;17.07;9.63;;;;;;;0.54;50.24;100010.53;7507282;23;20555;-58